createdAt,value
2017-12-02T00:01:01.407Z,20.20
2017-12-02T00:03:30.458Z,16.37
2017-12-02T00:05:58.790Z,18.83
2017-12-02T00:08:27.291Z,18.80
2017-12-02T00:10:55.598Z,18.40
2017-12-02T00:13:24.018Z,17.40
2017-12-02T00:15:52.526Z,19.10
2017-12-02T00:18:20.879Z,17.90
2017-12-02T00:20:49.220Z,17.93
2017-12-02T00:23:17.606Z,17.17
2017-12-02T00:25:45.893Z,15.60
2017-12-02T00:28:14.227Z,17.73
2017-12-02T00:30:43.285Z,19.50
2017-12-02T00:33:11.615Z,17.43
2017-12-02T00:35:40.707Z,19.00
2017-12-02T00:38:09.107Z,17.20
2017-12-02T00:40:37.470Z,19.43
2017-12-02T00:43:05.778Z,18.57
2017-12-02T00:45:34.314Z,16.03
2017-12-02T00:48:02.672Z,16.83
2017-12-02T00:50:30.958Z,19.30
2017-12-02T00:52:59.275Z,17.10
2017-12-02T00:55:27.562Z,15.53
2017-12-02T00:57:56.664Z,16.60
2017-12-02T01:00:25.738Z,17.30
2017-12-02T01:02:55.533Z,16.03
2017-12-02T01:05:23.867Z,15.80
2017-12-02T01:07:52.250Z,16.43
2017-12-02T01:10:20.538Z,15.63
2017-12-02T01:12:48.881Z,14.70
2017-12-02T01:15:17.215Z,14.17
2017-12-02T01:17:45.538Z,16.43
2017-12-02T01:20:14.609Z,17.50
2017-12-02T01:22:43.053Z,16.10
2017-12-02T01:25:11.343Z,15.40
2017-12-02T01:27:39.631Z,15.07
2017-12-02T01:30:07.978Z,14.83
2017-12-02T01:32:36.270Z,16.27
2017-12-02T01:35:04.559Z,14.53
2017-12-02T01:37:32.885Z,15.07
2017-12-02T01:40:01.176Z,14.23
2017-12-02T01:42:29.502Z,14.87
2017-12-02T01:44:57.795Z,13.37
2017-12-02T01:47:26.199Z,14.50
2017-12-02T01:49:54.595Z,14.67
2017-12-02T01:52:22.926Z,14.67
2017-12-02T01:54:51.255Z,12.30
2017-12-02T01:57:19.539Z,14.30
2017-12-02T01:59:47.830Z,16.00
2017-12-02T02:02:16.150Z,13.97
2017-12-02T02:04:44.450Z,13.77
2017-12-02T02:07:12.762Z,13.63
2017-12-02T02:09:41.054Z,15.30
2017-12-02T02:12:09.386Z,13.93
2017-12-02T02:14:37.675Z,13.40
2017-12-02T02:17:06.010Z,14.33
2017-12-02T02:19:34.297Z,14.70
2017-12-02T02:22:03.386Z,13.07
2017-12-02T02:24:32.453Z,12.77
2017-12-02T02:27:00.979Z,14.43
2017-12-02T02:29:30.051Z,13.80
2017-12-02T02:31:58.346Z,13.70
2017-12-02T02:34:26.703Z,16.17
2017-12-02T02:36:55.004Z,16.40
2017-12-02T02:39:23.300Z,15.00
2017-12-02T02:41:51.627Z,13.37
2017-12-02T02:44:19.922Z,13.30
2017-12-02T02:46:48.257Z,14.80
2017-12-02T02:49:16.592Z,11.93
2017-12-02T02:51:44.939Z,15.33
2017-12-02T02:54:13.485Z,14.03
2017-12-02T02:56:41.775Z,11.80
2017-12-02T02:59:10.064Z,13.97
2017-12-02T03:01:38.392Z,15.30
2017-12-02T03:04:06.680Z,15.07
2017-12-02T03:06:35.134Z,16.30
2017-12-02T03:09:03.430Z,16.27
2017-12-02T03:11:31.731Z,15.50
2017-12-02T03:14:02.028Z,13.67
2017-12-02T03:16:30.357Z,14.70
2017-12-02T03:18:59.447Z,14.33
2017-12-02T03:21:29.283Z,13.60
2017-12-02T03:23:58.342Z,13.30
2017-12-02T03:26:26.804Z,12.90
2017-12-02T03:28:55.859Z,12.70
2017-12-02T03:31:24.175Z,14.50
2017-12-02T03:33:52.467Z,14.60
2017-12-02T03:36:20.846Z,14.60
2017-12-02T03:38:49.115Z,14.30
2017-12-02T03:41:17.406Z,14.53
2017-12-02T03:43:45.740Z,13.53
2017-12-02T03:46:14.839Z,14.53
2017-12-02T03:48:43.176Z,12.30
2017-12-02T03:51:11.508Z,12.73
2017-12-02T03:53:39.786Z,10.70
2017-12-02T03:56:08.115Z,12.03
2017-12-02T03:58:37.170Z,13.30
2017-12-02T04:01:05.498Z,12.63
2017-12-02T04:03:34.558Z,12.00
2017-12-02T04:06:02.853Z,13.00
2017-12-02T04:08:31.182Z,13.07
2017-12-02T04:11:00.290Z,11.50
2017-12-02T04:13:28.579Z,11.40
2017-12-02T04:15:57.638Z,12.40
2017-12-02T04:18:25.974Z,11.60
2017-12-02T04:20:54.272Z,11.33
2017-12-02T04:23:23.350Z,10.90
2017-12-02T04:25:51.670Z,11.97
2017-12-02T04:28:20.726Z,10.03
2017-12-02T04:30:49.071Z,10.40
2017-12-02T04:33:18.128Z,10.03
2017-12-02T04:35:46.551Z,12.27
2017-12-02T04:38:14.830Z,11.80
2017-12-02T04:40:43.130Z,11.77
2017-12-02T04:43:11.468Z,10.70
2017-12-02T04:45:39.755Z,12.80
2017-12-02T04:48:08.090Z,11.50
2017-12-02T04:50:36.378Z,11.43
2017-12-02T04:53:04.670Z,15.40
2017-12-02T04:55:33.007Z,11.07
2017-12-02T04:58:01.297Z,11.00
2017-12-02T05:00:29.635Z,11.87
2017-12-02T05:02:57.939Z,10.63
2017-12-02T05:05:26.254Z,12.77
2017-12-02T05:07:54.539Z,11.87
2017-12-02T05:10:22.998Z,13.13
2017-12-02T05:12:51.278Z,13.30
2017-12-02T05:15:19.570Z,11.97
2017-12-02T05:17:47.902Z,12.23
2017-12-02T05:20:16.235Z,11.90
2017-12-02T05:22:44.523Z,11.33
2017-12-02T05:25:12.873Z,13.27
2017-12-02T05:27:41.160Z,9.97
2017-12-02T05:30:09.446Z,12.27
2017-12-02T05:32:38.003Z,13.00
2017-12-02T05:35:06.287Z,12.77
2017-12-02T05:37:34.618Z,11.50
2017-12-02T05:40:02.963Z,12.50
2017-12-02T05:42:31.470Z,12.80
2017-12-02T05:44:59.763Z,12.60
2017-12-02T05:47:28.051Z,11.77
2017-12-02T05:49:56.380Z,12.37
2017-12-02T05:52:24.686Z,12.30
2017-12-02T05:54:53.012Z,11.97
2017-12-02T05:57:21.297Z,12.60
2017-12-02T05:59:49.693Z,13.10
2017-12-02T06:02:17.978Z,11.77
2017-12-02T06:04:46.272Z,10.37
2017-12-02T06:07:14.600Z,13.20
2017-12-02T06:09:42.934Z,10.25
2017-12-02T06:12:11.243Z,14.20
2017-12-02T06:14:39.566Z,14.67
2017-12-02T06:17:08.643Z,14.33
2017-12-02T06:19:38.480Z,15.17
2017-12-02T06:22:07.570Z,15.82
2017-12-02T06:24:35.911Z,19.87
2017-12-02T06:27:04.202Z,24.23
2017-12-02T06:29:32.531Z,37.70
2017-12-02T06:32:00.818Z,29.97
2017-12-02T06:34:29.153Z,40.87
2017-12-02T06:36:58.215Z,44.03
2017-12-02T06:39:26.507Z,42.83
2017-12-02T06:41:54.847Z,31.03
2017-12-02T06:44:23.134Z,24.27
2017-12-02T06:46:51.690Z,25.00
2017-12-02T06:49:19.983Z,22.87
2017-12-02T06:51:48.274Z,22.93
2017-12-02T06:54:16.638Z,16.80
2017-12-02T06:56:44.926Z,16.73
2017-12-02T06:59:13.220Z,15.43
2017-12-02T07:01:41.555Z,17.33
2017-12-02T07:04:10.612Z,15.60
2017-12-02T07:06:39.062Z,17.33
2017-12-02T07:09:08.173Z,16.93
2017-12-02T07:11:37.223Z,16.33
2017-12-02T07:14:05.558Z,21.08
2017-12-02T07:16:34.615Z,20.00
2017-12-02T07:19:02.943Z,19.80
2017-12-02T07:21:32.002Z,15.83
2017-12-02T07:24:00.347Z,16.30
2017-12-02T07:26:29.419Z,26.03
2017-12-02T07:28:57.738Z,21.53
2017-12-02T07:31:26.803Z,24.70
2017-12-02T07:33:55.126Z,19.13
2017-12-02T07:36:23.419Z,18.43
2017-12-02T07:38:51.747Z,17.47
2017-12-02T07:41:20.035Z,20.97
2017-12-02T07:43:48.595Z,17.57
2017-12-02T07:46:17.651Z,20.27
2017-12-02T07:48:45.955Z,18.62
2017-12-02T07:51:14.378Z,18.40
2017-12-02T07:53:42.669Z,19.10
2017-12-02T07:56:10.994Z,17.33
2017-12-02T07:58:39.486Z,15.33
2017-12-02T08:01:07.775Z,16.37
2017-12-02T08:03:36.071Z,20.03
2017-12-02T08:06:04.401Z,18.20
2017-12-02T08:08:32.719Z,15.83
2017-12-02T08:11:01.012Z,14.40
2017-12-02T08:13:30.098Z,13.60
2017-12-02T08:15:58.431Z,15.00
2017-12-02T08:18:26.762Z,13.93
2017-12-02T08:20:55.058Z,13.13
2017-12-02T08:23:23.397Z,14.30
2017-12-02T08:25:51.687Z,18.17
2017-12-02T08:28:20.023Z,16.10
2017-12-02T08:30:48.356Z,13.87
2017-12-02T08:33:17.455Z,15.67
2017-12-02T08:35:46.514Z,16.83
2017-12-02T08:38:14.846Z,17.00
2017-12-02T08:40:43.170Z,18.40
2017-12-02T08:43:11.500Z,17.50
2017-12-02T08:45:39.783Z,16.07
2017-12-02T08:48:08.123Z,14.07
2017-12-02T08:50:37.181Z,17.70
2017-12-02T08:53:05.476Z,17.50
2017-12-02T08:55:33.803Z,15.17
2017-12-02T08:58:02.888Z,13.67
2017-12-02T09:00:31.271Z,12.83
2017-12-02T09:02:59.558Z,11.20
2017-12-02T09:05:27.842Z,12.30
2017-12-02T09:07:56.179Z,12.20
2017-12-02T09:10:24.521Z,12.40
2017-12-02T09:12:52.810Z,13.30
2017-12-02T09:15:21.099Z,13.27
2017-12-02T09:17:49.426Z,12.87
2017-12-02T09:20:18.708Z,12.93
2017-12-02T09:22:46.994Z,13.60
2017-12-02T09:25:15.282Z,14.57
2017-12-02T09:27:43.614Z,11.00
2017-12-02T09:30:11.958Z,13.17
2017-12-02T09:32:40.251Z,11.50
2017-12-02T09:35:08.543Z,15.10
2017-12-02T09:37:36.998Z,12.50
2017-12-02T09:40:06.274Z,13.20
2017-12-02T09:42:35.384Z,13.20
2017-12-02T09:45:04.444Z,12.10
2017-12-02T09:47:32.733Z,12.17
2017-12-02T09:50:01.070Z,12.93
2017-12-02T09:52:30.166Z,13.77
2017-12-02T09:54:58.468Z,14.67
2017-12-02T09:57:27.524Z,14.10
2017-12-02T09:59:56.245Z,13.33
2017-12-02T10:02:24.535Z,13.17
2017-12-02T10:04:52.947Z,13.20
2017-12-02T10:07:22.047Z,13.40
2017-12-02T10:09:50.330Z,13.00
2017-12-02T10:12:18.666Z,14.10
2017-12-02T10:17:23.001Z,13.97
2017-12-02T10:19:52.067Z,13.63
2017-12-02T10:22:20.363Z,12.70
2017-12-02T10:24:48.746Z,12.77
2017-12-02T10:27:17.248Z,12.80
2017-12-02T10:29:46.373Z,13.20
2017-12-02T10:32:15.074Z,13.57
2017-12-02T10:34:43.448Z,13.70
2017-12-02T10:37:11.733Z,14.77
2017-12-02T10:39:40.242Z,13.27
2017-12-02T10:42:08.539Z,13.50
2017-12-02T10:44:36.827Z,12.60
2017-12-02T10:47:05.167Z,13.50
2017-12-02T10:49:33.459Z,13.80
2017-12-02T10:52:01.791Z,11.67
2017-12-02T10:54:30.118Z,11.77
2017-12-02T10:56:58.427Z,11.47
2017-12-02T10:59:26.742Z,12.37
2017-12-02T11:01:55.035Z,13.83
2017-12-02T11:04:23.358Z,14.10
2017-12-02T11:06:52.436Z,12.43
2017-12-02T11:09:20.758Z,11.57
2017-12-02T11:11:49.813Z,11.03
2017-12-02T11:14:18.143Z,11.20
2017-12-02T11:16:46.429Z,10.43
2017-12-02T11:19:14.802Z,10.70
2017-12-02T11:21:43.097Z,11.70
2017-12-02T11:24:11.426Z,13.27
2017-12-02T11:26:39.718Z,13.13
2017-12-02T11:29:08.039Z,8.60
2017-12-02T11:31:36.335Z,11.03
2017-12-02T11:34:04.690Z,10.90
2017-12-02T11:36:32.978Z,10.57
2017-12-02T11:39:01.278Z,10.87
2017-12-02T11:41:29.619Z,10.37
2017-12-02T11:43:57.928Z,15.10
2017-12-02T11:46:26.997Z,15.07
2017-12-02T11:48:55.315Z,28.57
2017-12-02T11:51:23.606Z,34.80
2017-12-02T11:53:51.934Z,52.53
2017-12-02T11:56:20.222Z,53.70
2017-12-02T11:58:48.555Z,44.87
2017-12-02T12:01:18.178Z,17.93
2017-12-02T12:03:46.467Z,10.03
2017-12-02T12:06:14.761Z,8.63
2017-12-02T12:08:43.887Z,10.50
2017-12-02T12:11:12.945Z,18.10
2017-12-02T12:13:41.355Z,10.17
2017-12-02T12:16:10.602Z,8.50
2017-12-02T12:18:39.986Z,8.00
2017-12-02T12:21:08.430Z,9.57
2017-12-02T12:23:36.768Z,9.97
2017-12-02T12:26:05.050Z,8.43
2017-12-02T12:28:33.330Z,7.70
2017-12-02T12:31:01.668Z,10.43
2017-12-02T12:33:30.723Z,8.57
2017-12-02T12:35:59.050Z,8.30
2017-12-02T12:38:27.336Z,8.53
2017-12-02T12:40:57.174Z,10.23
2017-12-02T12:43:26.231Z,9.70
2017-12-02T12:45:54.586Z,8.00
2017-12-02T12:48:22.879Z,8.97
2017-12-02T12:50:51.187Z,7.60
2017-12-02T12:53:20.502Z,8.63
2017-12-02T12:55:48.853Z,7.57
2017-12-02T12:58:17.903Z,7.80
2017-12-02T13:00:46.190Z,8.63
2017-12-02T13:03:14.511Z,7.77
2017-12-02T13:05:42.902Z,8.93
2017-12-02T13:08:11.187Z,7.40
2017-12-02T13:10:39.547Z,8.43
2017-12-02T13:13:07.831Z,7.20
2017-12-02T13:15:37.422Z,8.90
2017-12-02T13:18:06.503Z,7.50
2017-12-02T13:20:34.830Z,7.83
2017-12-02T13:23:03.119Z,7.30
2017-12-02T13:25:32.171Z,8.93
2017-12-02T13:28:00.491Z,7.73
2017-12-02T13:30:30.328Z,7.20
2017-12-02T13:32:59.408Z,8.40
2017-12-02T13:35:27.722Z,8.27
2017-12-02T13:37:56.775Z,7.90
2017-12-02T13:40:25.106Z,9.50
2017-12-02T13:42:53.394Z,8.93
2017-12-02T13:45:21.674Z,8.00
2017-12-02T13:47:50.018Z,8.10
2017-12-02T13:50:18.350Z,10.10
2017-12-02T13:52:46.643Z,9.20
2017-12-02T13:55:14.979Z,15.67
2017-12-02T13:57:43.315Z,21.40
2017-12-02T14:00:11.646Z,29.00
2017-12-02T14:02:40.756Z,30.50
2017-12-02T14:05:09.815Z,59.00
2017-12-02T14:07:38.167Z,124.77
2017-12-02T14:10:06.496Z,80.23
2017-12-02T14:12:34.795Z,54.07
2017-12-02T14:15:03.140Z,32.60
2017-12-02T14:17:31.436Z,35.67
2017-12-02T14:19:59.763Z,25.73
2017-12-02T14:22:29.566Z,25.53
2017-12-02T14:24:57.897Z,14.50
2017-12-02T14:27:26.182Z,11.27
2017-12-02T14:29:54.502Z,9.90
2017-12-02T14:32:22.842Z,9.63
2017-12-02T14:34:51.234Z,8.43
2017-12-02T14:37:19.597Z,9.33
2017-12-02T14:39:47.875Z,9.10
2017-12-02T14:42:16.159Z,8.20
2017-12-02T14:44:44.499Z,8.50
2017-12-02T14:47:12.783Z,9.33
2017-12-02T14:49:41.111Z,9.53
2017-12-02T14:52:10.167Z,7.10
2017-12-02T14:54:38.498Z,9.83
2017-12-02T14:57:07.550Z,8.30
2017-12-02T14:59:35.877Z,8.30
2017-12-02T15:02:04.168Z,8.27
2017-12-02T15:04:33.396Z,7.40
2017-12-02T15:07:01.729Z,8.47
2017-12-02T15:09:30.004Z,7.57
2017-12-02T15:11:58.341Z,8.10
2017-12-02T15:14:26.635Z,10.97
2017-12-02T15:16:54.934Z,8.93
2017-12-02T15:19:23.291Z,9.27
2017-12-02T15:21:51.591Z,7.55
2017-12-02T15:24:19.875Z,6.97
2017-12-02T15:26:48.199Z,6.60
2017-12-02T15:29:16.522Z,7.97
2017-12-02T15:31:44.815Z,7.60
2017-12-02T15:34:13.246Z,5.90
2017-12-02T15:36:41.575Z,7.03
2017-12-02T15:39:10.658Z,7.13
2017-12-02T15:41:39.877Z,9.40
2017-12-02T15:44:08.258Z,7.53
2017-12-02T15:46:36.562Z,8.70
2017-12-02T15:49:04.870Z,7.83
2017-12-02T15:51:33.238Z,10.18
2017-12-02T15:54:03.084Z,11.27
2017-12-02T15:56:31.408Z,12.87
2017-12-02T15:58:59.798Z,11.70
2017-12-02T16:01:28.946Z,8.00
2017-12-02T16:03:57.226Z,6.30
2017-12-02T16:06:25.550Z,3.33
2017-12-02T16:08:54.628Z,3.47
2017-12-02T16:11:22.915Z,2.60
2017-12-02T16:13:55.161Z,5.00
2017-12-02T16:16:23.452Z,4.63
2017-12-02T16:18:52.715Z,3.90
2017-12-02T16:21:21.040Z,5.13
2017-12-02T16:23:49.362Z,5.80
2017-12-02T16:26:17.643Z,7.30
2017-12-02T16:28:45.939Z,3.93
2017-12-02T16:31:14.307Z,6.50
2017-12-02T16:33:42.627Z,5.60
2017-12-02T16:36:10.916Z,4.80
2017-12-02T16:38:39.243Z,5.93
2017-12-02T16:41:08.287Z,5.70
2017-12-02T16:43:36.608Z,4.23
2017-12-02T16:46:04.884Z,3.93
2017-12-02T16:48:33.199Z,6.63
2017-12-02T16:51:01.576Z,4.90
2017-12-02T16:53:29.854Z,4.27
2017-12-02T16:55:58.161Z,4.50
2017-12-02T16:58:26.478Z,5.20
2017-12-02T17:00:55.523Z,6.20
2017-12-02T17:03:23.833Z,5.43
2017-12-02T17:05:52.118Z,6.50
2017-12-02T17:08:20.443Z,7.63
2017-12-02T17:10:49.495Z,5.70
2017-12-02T17:13:18.826Z,5.47
2017-12-02T17:15:47.151Z,5.97
2017-12-02T17:18:16.194Z,5.80
2017-12-02T17:20:44.530Z,6.30
2017-12-02T17:23:13.030Z,7.93
2017-12-02T17:25:41.518Z,6.70
2017-12-02T17:28:09.821Z,7.70
2017-12-02T17:30:39.574Z,9.63
2017-12-02T17:33:08.047Z,11.73
2017-12-02T17:35:37.163Z,14.40
2017-12-02T17:38:06.464Z,15.33
2017-12-02T17:40:35.520Z,15.93
2017-12-02T17:43:03.842Z,15.63
2017-12-02T17:45:32.150Z,17.10
2017-12-02T17:48:01.335Z,16.40
2017-12-02T17:50:29.627Z,16.10
2017-12-02T17:52:57.914Z,17.93
2017-12-02T17:55:26.246Z,17.10
2017-12-02T17:57:54.616Z,14.87
2017-12-02T18:00:23.666Z,16.87
2017-12-02T18:02:51.950Z,21.00
2017-12-02T18:05:20.388Z,16.80
2017-12-02T18:07:48.679Z,16.97
2017-12-02T18:10:17.003Z,16.97
2017-12-02T18:12:45.339Z,20.13
2017-12-02T18:15:13.743Z,18.83
2017-12-02T18:17:43.587Z,19.03
2017-12-02T18:20:12.716Z,17.67
2017-12-02T18:22:41.008Z,20.57
2017-12-02T18:25:09.294Z,20.27
2017-12-02T18:27:38.948Z,20.17
2017-12-02T18:30:07.240Z,20.17
2017-12-02T18:32:35.530Z,17.10
2017-12-02T18:35:03.862Z,17.43
2017-12-02T18:37:32.169Z,16.43
2017-12-02T18:40:00.463Z,17.33
2017-12-02T18:42:28.794Z,17.17
2017-12-02T18:44:57.098Z,18.07
2017-12-02T18:47:27.919Z,17.53
2017-12-02T18:49:56.211Z,16.40
2017-12-02T18:52:24.547Z,16.83
2017-12-02T18:54:53.602Z,15.53
2017-12-02T18:57:21.903Z,14.70
2017-12-02T18:59:50.251Z,15.63
2017-12-02T19:02:19.339Z,17.30
2017-12-02T19:04:47.629Z,16.90
2017-12-02T19:07:16.733Z,14.63
2017-12-02T19:09:45.842Z,16.03
2017-12-02T19:12:14.178Z,16.93
2017-12-02T19:14:42.463Z,17.43
2017-12-02T19:17:10.752Z,15.00
2017-12-02T19:19:39.094Z,18.03
2017-12-02T19:22:07.387Z,16.67
2017-12-02T19:24:35.734Z,16.13
2017-12-02T19:27:04.091Z,17.87
2017-12-02T19:29:32.424Z,17.00
2017-12-02T19:32:00.750Z,15.17
2017-12-02T19:34:29.051Z,17.33
2017-12-02T19:36:58.143Z,15.90
2017-12-02T19:39:26.438Z,15.57
2017-12-02T19:41:54.759Z,16.27
2017-12-02T19:44:23.050Z,14.93
2017-12-02T19:46:51.374Z,17.93
2017-12-02T19:49:19.664Z,16.70
2017-12-02T19:51:47.994Z,18.63
2017-12-02T19:54:17.059Z,17.53
2017-12-02T19:56:45.388Z,16.70
2017-12-02T19:59:14.443Z,16.47
2017-12-02T20:01:43.061Z,16.60
2017-12-02T20:04:12.310Z,17.23
2017-12-02T20:06:40.604Z,15.57
2017-12-02T20:09:09.699Z,16.00
2017-12-02T20:11:38.804Z,17.63
2017-12-02T20:14:07.974Z,15.90
2017-12-02T20:16:36.266Z,16.40
2017-12-02T20:19:04.594Z,17.77
2017-12-02T20:21:33.650Z,15.20
2017-12-02T20:24:02.004Z,18.17
2017-12-02T20:26:31.059Z,18.77
2017-12-02T20:28:59.398Z,16.23
2017-12-02T20:31:28.611Z,16.90
2017-12-02T20:33:56.947Z,16.90
2017-12-02T20:36:25.244Z,16.37
2017-12-02T20:38:53.588Z,20.30
2017-12-02T20:41:22.636Z,20.43
2017-12-02T20:43:50.965Z,17.60
2017-12-02T20:46:20.050Z,18.90
2017-12-02T20:48:48.552Z,16.87
2017-12-02T20:51:16.841Z,17.77
2017-12-02T20:53:45.134Z,18.40
2017-12-02T20:56:15.052Z,18.87
2017-12-02T20:58:43.450Z,18.07
2017-12-02T21:01:11.746Z,17.73
2017-12-02T21:03:40.125Z,16.63
2017-12-02T21:06:08.454Z,19.60
2017-12-02T21:08:37.439Z,17.50
2017-12-02T21:13:36.470Z,22.47
2017-12-02T21:16:05.581Z,25.13
2017-12-02T21:18:34.671Z,18.30
2017-12-02T21:21:02.962Z,20.60
2017-12-02T21:23:32.078Z,19.10
2017-12-02T21:26:00.412Z,17.70
2017-12-02T21:28:28.954Z,18.20
2017-12-02T21:30:57.234Z,17.77
2017-12-02T21:33:25.527Z,18.50
2017-12-02T21:35:53.882Z,18.27
2017-12-02T21:38:22.219Z,16.50
2017-12-02T21:40:50.511Z,17.27
2017-12-02T21:43:18.842Z,18.10
2017-12-02T21:45:47.141Z,17.60
2017-12-02T21:48:15.462Z,18.20
2017-12-02T21:50:43.752Z,16.50
2017-12-02T21:53:12.074Z,17.93
2017-12-02T21:55:41.144Z,15.80
2017-12-02T21:58:09.551Z,19.30
2017-12-02T22:00:37.859Z,18.07
2017-12-02T22:03:07.067Z,17.70
2017-12-02T22:05:36.127Z,18.30
2017-12-02T22:08:04.423Z,18.87
2017-12-02T22:10:32.758Z,18.53
2017-12-02T22:13:01.846Z,20.63
2017-12-02T22:15:30.143Z,20.60
2017-12-02T22:17:59.234Z,17.20
2017-12-02T22:20:27.534Z,19.43
2017-12-02T22:22:55.863Z,17.60
2017-12-02T22:25:24.170Z,18.37
2017-12-02T22:27:52.603Z,17.10
2017-12-02T22:30:20.935Z,20.23
2017-12-02T22:32:49.282Z,18.80
2017-12-02T22:35:19.074Z,19.73
2017-12-02T22:37:47.410Z,19.57
2017-12-02T22:40:15.704Z,20.97
2017-12-02T22:42:44.802Z,17.63
2017-12-02T22:45:13.134Z,20.60
2017-12-02T22:47:41.482Z,19.10
2017-12-02T22:50:10.542Z,20.57
2017-12-02T22:52:38.832Z,21.00
2017-12-02T22:55:07.183Z,17.53
2017-12-02T22:57:36.251Z,17.53
2017-12-02T23:00:04.543Z,18.90
2017-12-02T23:02:32.883Z,19.43
2017-12-02T23:05:01.175Z,20.13
2017-12-02T23:07:29.516Z,21.50
2017-12-02T23:09:57.859Z,21.90
2017-12-02T23:12:26.146Z,21.10
2017-12-02T23:14:54.439Z,19.23
2017-12-02T23:17:22.789Z,17.00
2017-12-02T23:19:51.131Z,17.33
2017-12-02T23:22:19.495Z,17.20
2017-12-02T23:24:48.547Z,16.80
2017-12-02T23:27:16.898Z,15.70
2017-12-02T23:29:45.188Z,17.23
2017-12-02T23:32:13.536Z,19.60
2017-12-02T23:34:42.416Z,20.07
2017-12-02T23:37:13.298Z,19.23
2017-12-02T23:39:41.598Z,18.73
2017-12-02T23:42:10.664Z,16.53
2017-12-02T23:44:39.169Z,18.00
2017-12-02T23:47:07.483Z,18.73
2017-12-02T23:49:35.860Z,18.10
2017-12-02T23:52:04.151Z,19.30
2017-12-02T23:54:32.442Z,18.80
2017-12-02T23:57:00.835Z,15.33
2017-12-02T23:59:29.166Z,15.97
